Time;durP1;ratioP1;P1;durP2;ratioP2;P2;SDS_P1;SDS_P2;PMS_P1;PMS_P2;Temp;Humidity;BMP_temperature;BMP_pressure;BME280_temperature;BME280_humidity;BME280_pressure;Samples;Min_cycle;Max_cycle;Signal;HPM_P1;HPM_P2
2023/05/31 00:01:50;;;;;;;2.90;2.60;;;23.30;54.50;;;;;;4985654;28;20448;-72
2023/05/31 00:04:18;;;;;;;3.23;2.93;;;23.30;54.50;;;;;;4984443;28;20474;-72
2023/05/31 00:06:47;;;;;;;3.37;2.90;;;23.30;54.60;;;;;;4968912;28;20447;-72
2023/05/31 00:09:15;;;;;;;3.73;3.23;;;23.30;54.80;;;;;;4968526;28;20454;-72
2023/05/31 00:11:45;;;;;;;3.60;3.30;;;23.30;54.60;;;;;;4968433;28;20461;-72
2023/05/31 00:14:13;;;;;;;3.37;3.07;;;23.30;54.50;;;;;;4970230;28;20433;-72
2023/05/31 00:16:42;;;;;;;3.40;3.10;;;23.30;54.50;;;;;;4969155;28;20496;-72
2023/05/31 00:19:30;;;;;;;3.10;2.80;;;23.30;54.50;;;;;;4966249;28;20500;-72
2023/05/31 00:21:59;;;;;;;3.47;2.87;;;23.30;54.60;;;;;;4949807;28;20494;-72
2023/05/31 00:24:27;;;;;;;3.20;2.83;;;23.30;54.60;;;;;;4964219;28;20506;-72
2023/05/31 00:26:57;;;;;;;2.90;2.70;;;23.30;54.50;;;;;;4957843;28;20439;-72
2023/05/31 00:29:26;;;;;;;4.20;3.20;;;23.30;54.50;;;;;;4965476;28;20574;-72
2023/05/31 00:31:55;;;;;;;5.23;2.90;;;23.30;54.60;;;;;;4934277;28;20556;-72
2023/05/31 00:34:24;;;;;;;2.93;2.73;;;23.30;54.70;;;;;;4949252;29;20465;-72
2023/05/31 00:36:52;;;;;;;4.40;3.30;;;23.30;54.60;;;;;;4949569;29;20439;-73
2023/05/31 00:39:20;;;;;;;3.47;3.17;;;23.30;54.60;;;;;;4948334;29;20567;-71
2023/05/31 00:41:49;;;;;;;3.70;2.70;;;23.30;54.60;;;;;;4948396;28;20469;-72
2023/05/31 00:44:19;;;;;;;3.00;2.80;;;23.30;54.50;;;;;;4950212;29;20453;-72
2023/05/31 00:46:48;;;;;;;2.87;2.67;;;23.30;54.70;;;;;;4965026;28;20454;-72
2023/05/31 00:49:16;;;;;;;3.10;2.90;;;23.20;54.50;;;;;;4948021;28;20450;-73
2023/05/31 00:51:45;;;;;;;2.80;2.57;;;23.20;54.50;;;;;;4948582;28;20494;-73
2023/05/31 00:54:14;;;;;;;3.23;2.93;;;23.20;54.50;;;;;;4963123;28;20458;-72
2023/05/31 00:56:43;;;;;;;3.70;2.90;;;23.20;54.60;;;;;;4954593;28;20442;-72
2023/05/31 00:59:12;;;;;;;4.63;2.70;;;23.20;54.50;;;;;;4964642;28;20474;-73
2023/05/31 01:01:42;;;;;;;3.73;3.43;;;23.20;54.60;;;;;;4964466;28;20438;-71
2023/05/31 01:04:16;;;;;;;3.43;2.77;;;23.30;54.70;;;;;;4947490;28;20448;-71
2023/05/31 01:06:46;;;;;;;3.20;2.83;;;23.20;54.60;;;;;;4963923;28;20544;-72
2023/05/31 01:09:14;;;;;;;3.13;2.33;;;23.20;54.60;;;;;;4962673;28;20906;-72
2023/05/31 01:11:57;;;;;;;3.00;2.70;;;23.20;54.70;;;;;;4964918;28;20470;-72
2023/05/31 01:14:35;;;;;;;3.17;2.70;;;23.20;54.70;;;;;;4964864;28;20569;-70
2023/05/31 01:17:14;;;;;;;3.40;3.10;;;23.20;54.80;;;;;;4963788;28;20473;-71
2023/05/31 01:19:50;;;;;;;5.03;2.70;;;23.20;54.80;;;;;;4961105;28;20472;-72
2023/05/31 01:22:30;;;;;;;3.20;2.90;;;23.20;54.80;;;;;;4964188;28;20903;-72
2023/05/31 01:25:23;;;;;;;3.90;2.93;;;23.20;54.90;;;;;;4960439;28;20473;-73
2023/05/31 01:27:55;;;;;;;3.03;2.73;;;23.20;54.80;;;;;;4963830;28;20986;-72
2023/05/31 01:30:28;;;;;;;3.20;2.60;;;23.20;54.90;;;;;;4948641;28;20446;-72
2023/05/31 01:32:58;;;;;;;4.40;3.17;;;23.20;54.80;;;;;;4978297;28;20478;-71
2023/05/31 01:35:29;;;;;;;3.60;3.30;;;23.20;54.80;;;;;;4967488;28;20906;-72
2023/05/31 01:37:58;;;;;;;2.90;2.70;;;23.20;54.80;;;;;;4965441;28;20497;-71
2023/05/31 01:40:29;;;;;;;3.10;2.77;;;23.20;55.10;;;;;;4960849;28;20447;-72
2023/05/31 01:43:00;;;;;;;3.80;2.50;;;23.20;54.90;;;;;;4971709;28;20461;-73
2023/05/31 01:45:29;;;;;;;3.70;3.30;;;23.20;55.10;;;;;;4967516;28;20470;-72
2023/05/31 01:48:01;;;;;;;2.53;2.33;;;23.20;55.10;;;;;;4972107;28;20472;-72
2023/05/31 01:50:30;;;;;;;3.47;2.77;;;23.20;55.00;;;;;;4980095;28;20440;-71
2023/05/31 01:52:59;;;;;;;2.97;2.67;;;23.10;54.90;;;;;;4974294;28;20472;-71
2023/05/31 01:55:29;;;;;;;3.40;3.00;;;23.20;55.00;;;;;;4950918;28;20852;-71
2023/05/31 01:58:00;;;;;;;3.20;2.87;;;23.10;55.00;;;;;;4970470;28;20542;-72
2023/05/31 02:00:31;;;;;;;3.00;2.80;;;23.10;54.80;;;;;;4967406;28;20966;-72
2023/05/31 02:03:01;;;;;;;2.87;2.67;;;23.10;54.80;;;;;;4983683;28;20527;-72
2023/05/31 02:05:29;;;;;;;3.60;3.30;;;23.10;54.90;;;;;;4969730;28;20453;-72
2023/05/31 02:08:00;;;;;;;3.30;3.00;;;23.10;54.80;;;;;;4967546;28;20478;-72
2023/05/31 02:10:28;;;;;;;3.80;3.00;;;23.10;54.80;;;;;;4969004;28;20445;-72
2023/05/31 02:12:57;;;;;;;3.00;2.70;;;23.10;55.00;;;;;;4977015;28;20476;-72
2023/05/31 02:15:27;;;;;;;3.83;3.23;;;23.10;54.80;;;;;;4969391;28;21032;-72
2023/05/31 02:17:58;;;;;;;4.33;2.90;;;23.10;54.80;;;;;;4971918;28;20491;-71
2023/05/31 02:20:27;;;;;;;3.37;2.90;;;23.10;54.80;;;;;;4969420;28;20479;-73
2023/05/31 02:22:55;;;;;;;3.83;3.53;;;23.10;54.90;;;;;;4968116;28;20457;-72
2023/05/31 02:25:24;;;;;;;3.13;2.83;;;23.00;54.70;;;;;;4985291;28;20458;-72
2023/05/31 02:27:53;;;;;;;3.83;3.43;;;23.00;55.00;;;;;;4967895;28;20472;-72
2023/05/31 02:30:27;;;;;;;4.27;3.50;;;23.00;54.90;;;;;;4969017;28;20439;-72
2023/05/31 02:32:56;;;;;;;4.80;2.90;;;23.00;54.80;;;;;;4968042;28;20485;-72
2023/05/31 02:35:25;;;;;;;5.13;3.57;;;23.00;54.90;;;;;;4968766;28;20464;-72
2023/05/31 02:37:53;;;;;;;4.70;3.47;;;23.00;54.90;;;;;;4968160;28;20471;-72
2023/05/31 02:40:22;;;;;;;3.37;3.00;;;23.00;55.00;;;;;;4968983;28;20473;-72
2023/05/31 02:42:50;;;;;;;4.33;3.23;;;23.00;54.90;;;;;;4968277;28;20468;-72
2023/05/31 02:45:19;;;;;;;5.90;4.13;;;23.00;54.90;;;;;;4983777;28;20472;-73
2023/05/31 02:47:47;;;;;;;6.60;3.47;;;23.00;55.10;;;;;;4963101;28;20490;-71
2023/05/31 02:50:18;;;;;;;4.20;3.80;;;23.00;55.00;;;;;;4968935;28;20444;-72
2023/05/31 02:52:54;;;;;;;4.67;3.13;;;23.00;54.90;;;;;;4948641;28;21117;-72
2023/05/31 02:55:38;;;;;;;3.50;3.13;;;23.00;54.90;;;;;;4962098;28;20859;-72
2023/05/31 02:58:24;;;;;;;3.80;3.10;;;23.00;54.90;;;;;;4949859;28;20473;-72
2023/05/31 03:01:13;;;;;;;3.63;2.80;;;23.00;55.20;;;;;;4944175;29;20537;-72
2023/05/31 03:03:55;;;;;;;3.10;2.80;;;23.00;55.20;;;;;;4947069;28;20440;-72
2023/05/31 03:06:30;;;;;;;3.70;3.40;;;22.90;55.20;;;;;;4939765;28;20462;-73
2023/05/31 03:08:59;;;;;;;3.80;3.47;;;22.90;55.10;;;;;;4937572;29;20460;-72
2023/05/31 03:11:28;;;;;;;4.23;3.83;;;22.90;55.10;;;;;;4939186;29;20438;-72
2023/05/31 03:13:56;;;;;;;4.93;3.40;;;22.90;55.00;;;;;;4953296;28;20453;-73
2023/05/31 03:16:31;;;;;;;3.50;3.20;;;22.90;55.00;;;;;;4947051;29;20445;-72
2023/05/31 03:19:00;;;;;;;3.53;2.87;;;22.90;55.10;;;;;;4938681;29;20559;-72
2023/05/31 03:21:31;;;;;;;4.20;3.13;;;22.90;55.10;;;;;;4951544;28;20520;-72
2023/05/31 03:23:59;;;;;;;3.97;3.57;;;22.90;55.10;;;;;;4954330;28;20457;-71
2023/05/31 03:26:28;;;;;;;3.50;2.87;;;22.90;55.10;;;;;;4955650;28;20662;-72
2023/05/31 03:28:57;;;;;;;3.60;3.17;;;22.90;55.00;;;;;;4946907;28;20452;-72
2023/05/31 03:31:29;;;;;;;4.07;3.20;;;22.90;55.10;;;;;;4963341;28;20442;-72
2023/05/31 03:33:58;;;;;;;3.43;3.13;;;22.90;55.10;;;;;;4953979;28;20457;-71
2023/05/31 03:36:27;;;;;;;4.77;3.67;;;22.90;55.20;;;;;;4962892;28;20457;-72
2023/05/31 03:39:00;;;;;;;4.10;3.70;;;22.90;55.10;;;;;;4941142;28;20460;-72
2023/05/31 03:41:28;;;;;;;5.07;3.30;;;22.90;55.20;;;;;;4962757;28;20897;-72
2023/05/31 03:43:57;;;;;;;3.90;3.03;;;22.90;55.30;;;;;;4942312;28;20443;-72
2023/05/31 03:46:26;;;;;;;3.70;3.30;;;22.90;55.30;;;;;;4954937;28;20483;-72
2023/05/31 03:48:55;;;;;;;3.60;3.30;;;22.80;55.20;;;;;;4965661;28;20457;-72
2023/05/31 03:51:26;;;;;;;3.97;3.30;;;22.80;55.20;;;;;;4949028;29;20458;-72
2023/05/31 03:53:55;;;;;;;3.23;2.93;;;22.80;55.20;;;;;;4965096;28;20448;-72
2023/05/31 03:56:25;;;;;;;3.63;3.33;;;22.80;55.30;;;;;;4949621;29;20476;-72
2023/05/31 03:58:53;;;;;;;4.10;3.30;;;22.80;55.20;;;;;;4956763;28;20517;-72
2023/05/31 04:01:22;;;;;;;5.43;3.23;;;22.80;55.40;;;;;;4964863;28;20484;-72
2023/05/31 04:03:50;;;;;;;3.70;3.37;;;22.80;55.30;;;;;;4965605;28;20454;-70
2023/05/31 04:06:20;;;;;;;3.73;3.40;;;22.80;55.30;;;;;;4954751;28;20901;-72
2023/05/31 04:08:48;;;;;;;4.30;3.30;;;22.80;55.40;;;;;;4958429;28;20516;-73
2023/05/31 04:11:17;;;;;;;8.27;3.77;;;22.80;55.60;;;;;;4951092;28;20442;-72
2023/05/31 04:13:47;;;;;;;3.97;3.67;;;22.80;56.50;;;;;;4992538;28;21249;-72
2023/05/31 04:16:16;;;;;;;3.43;3.13;;;22.80;55.40;;;;;;4976029;28;20480;-72
2023/05/31 04:18:45;;;;;;;3.90;3.60;;;22.80;55.40;;;;;;4977736;28;20840;-71
2023/05/31 04:21:14;;;;;;;3.60;3.30;;;22.80;55.50;;;;;;4977901;28;20472;-72
2023/05/31 04:23:43;;;;;;;3.93;2.73;;;22.80;55.60;;;;;;4969512;28;20443;-71
2023/05/31 04:26:16;;;;;;;3.23;2.77;;;22.70;55.40;;;;;;4971231;28;20467;-72
2023/05/31 04:28:51;;;;;;;3.57;3.27;;;22.70;56.70;;;;;;4976774;28;20509;-70
2023/05/31 04:31:24;;;;;;;3.27;3.03;;;22.80;55.50;;;;;;4993491;28;20444;-72
2023/05/31 04:34:06;;;;;;;3.73;3.30;;;22.70;55.40;;;;;;4983379;28;20559;-71
2023/05/31 04:36:36;;;;;;;3.27;2.90;;;22.70;55.50;;;;;;4976935;28;20823;-72
2023/05/31 04:39:12;;;;;;;4.30;3.20;;;22.70;55.60;;;;;;4984840;28;20452;-72
2023/05/31 04:41:41;;;;;;;4.07;3.30;;;22.70;55.50;;;;;;4963173;28;20957;-73
2023/05/31 04:44:10;;;;;;;3.80;3.50;;;22.70;55.70;;;;;;4965360;28;20464;-72
2023/05/31 04:46:40;;;;;;;3.70;3.40;;;22.70;55.60;;;;;;4952801;28;20441;-70
2023/05/31 04:49:11;;;;;;;3.10;2.80;;;22.70;55.70;;;;;;4963905;28;20793;-72
2023/05/31 04:51:40;;;;;;;5.53;3.00;;;22.70;55.70;;;;;;4961223;28;20462;-72
2023/05/31 04:54:09;;;;;;;4.10;3.57;;;22.60;55.80;;;;;;4956033;28;21025;-72
2023/05/31 04:56:37;;;;;;;3.53;3.23;;;22.60;56.90;;;;;;4951983;28;20464;-72
2023/05/31 04:59:07;;;;;;;3.90;3.60;;;22.60;55.80;;;;;;4965635;28;20445;-71
2023/05/31 05:01:39;;;;;;;3.60;3.30;;;22.70;55.90;;;;;;4969665;28;20699;-72
2023/05/31 05:04:13;;;;;;;3.90;3.50;;;22.60;55.80;;;;;;4962427;28;20444;-70
2023/05/31 05:06:42;;;;;;;3.90;3.60;;;22.60;55.80;;;;;;4962401;28;20966;-71
2023/05/31 05:09:10;;;;;;;3.53;3.13;;;22.70;55.90;;;;;;4963127;28;20459;-72
2023/05/31 05:11:39;;;;;;;3.40;3.10;;;22.60;55.90;;;;;;4948428;28;20531;-71
2023/05/31 05:14:08;;;;;;;4.60;3.90;;;22.70;55.90;;;;;;4946152;28;20549;-72
2023/05/31 05:16:38;;;;;;;3.83;3.53;;;22.70;55.90;;;;;;4960980;28;20483;-70
2023/05/31 05:19:07;;;;;;;3.60;3.30;;;22.60;55.90;;;;;;4935241;28;20459;-71
2023/05/31 05:21:38;;;;;;;3.10;2.83;;;22.70;56.10;;;;;;4978169;28;20658;-70
2023/05/31 05:24:06;;;;;;;3.30;2.97;;;22.60;56.00;;;;;;4978293;28;20453;-72
2023/05/31 05:26:35;;;;;;;4.50;3.57;;;22.70;56.00;;;;;;4964129;28;20930;-72
2023/05/31 05:29:05;;;;;;;5.40;3.90;;;22.60;55.90;;;;;;4979892;28;20882;-72
2023/05/31 05:31:34;;;;;;;3.57;3.27;;;22.70;55.80;;;;;;4955493;28;20888;-73
2023/05/31 05:34:07;;;;;;;3.30;3.00;;;22.60;55.80;;;;;;4977038;28;20456;-72
2023/05/31 05:36:36;;;;;;;6.50;3.40;;;22.70;55.90;;;;;;4982690;28;20454;-72
2023/05/31 05:39:06;;;;;;;4.40;3.43;;;22.60;55.90;;;;;;4963398;28;20471;-72
2023/05/31 05:41:35;;;;;;;6.07;4.27;;;22.60;55.80;;;;;;4959143;28;20477;-71
2023/05/31 05:44:05;;;;;;;3.67;3.37;;;22.60;55.70;;;;;;4963937;28;20437;-72
2023/05/31 05:46:34;;;;;;;4.07;3.53;;;22.60;55.70;;;;;;4943604;28;20484;-72
2023/05/31 05:49:03;;;;;;;3.60;3.20;;;22.60;55.90;;;;;;4963714;28;20477;-71
2023/05/31 05:51:33;;;;;;;3.90;3.30;;;22.60;55.90;;;;;;4976054;28;20869;-72
2023/05/31 05:54:07;;;;;;;3.10;2.80;;;22.60;55.90;;;;;;4961619;28;20452;-71
2023/05/31 05:56:37;;;;;;;3.33;3.03;;;22.70;56.10;;;;;;4963762;28;20536;-72
2023/05/31 05:59:08;;;;;;;3.20;2.90;;;22.70;56.00;;;;;;4948002;28;20882;-72
2023/05/31 06:02:00;;;;;;;3.50;3.20;;;22.70;56.20;;;;;;4955588;28;20469;-72
2023/05/31 06:04:29;;;;;;;3.00;2.73;;;22.60;56.00;;;;;;4962191;28;20465;-72
2023/05/31 06:06:59;;;;;;;3.23;2.93;;;22.70;56.20;;;;;;4946695;28;20933;-72
2023/05/31 06:09:27;;;;;;;4.03;3.63;;;22.70;56.20;;;;;;4940603;28;20599;-72
2023/05/31 06:11:56;;;;;;;3.20;2.90;;;22.70;56.10;;;;;;4947993;28;21624;-72
2023/05/31 06:14:28;;;;;;;4.50;3.43;;;22.60;56.00;;;;;;4958382;28;21050;-71
2023/05/31 06:16:56;;;;;;;3.97;3.20;;;22.60;56.40;;;;;;4956783;28;20507;-71
2023/05/31 06:19:25;;;;;;;3.40;3.10;;;22.70;56.40;;;;;;4938490;28;20454;-71
2023/05/31 06:21:57;;;;;;;2.63;2.43;;;22.60;56.20;;;;;;4955248;28;20460;-73
2023/05/31 06:24:27;;;;;;;2.83;2.60;;;22.60;56.10;;;;;;4946596;28;20473;-72
2023/05/31 06:26:55;;;;;;;3.73;3.43;;;22.70;56.20;;;;;;4964829;28;20464;-72
2023/05/31 06:29:29;;;;;;;3.50;3.20;;;22.60;56.10;;;;;;4960431;28;20476;-72
2023/05/31 06:31:57;;;;;;;3.97;3.67;;;22.70;56.20;;;;;;4956310;28;20475;-72
2023/05/31 06:34:30;;;;;;;3.30;2.97;;;22.60;56.20;;;;;;4945991;28;20560;-71
2023/05/31 06:37:01;;;;;;;3.10;2.67;;;22.70;56.30;;;;;;4954739;28;20485;-72
2023/05/31 06:39:31;;;;;;;3.50;3.20;;;22.60;56.60;;;;;;4944426;28;20445;-72
2023/05/31 06:42:01;;;;;;;4.10;3.67;;;22.60;55.90;;;;;;4987519;28;20894;-72
2023/05/31 06:44:48;;;;;;;4.13;2.50;;;22.60;55.90;;;;;;4955132;28;20824;-71
2023/05/31 06:47:42;;;;;;;3.53;3.23;;;22.60;56.30;;;;;;4945863;28;20531;-72
2023/05/31 06:50:23;;;;;;;6.10;3.93;;;22.70;55.60;;;;;;4948475;29;20449;-71
2023/05/31 06:52:52;;;;;;;3.33;3.03;;;22.60;54.90;;;;;;4943753;28;20475;-72
2023/05/31 06:55:32;;;;;;;4.73;4.20;;;22.70;55.20;;;;;;4931327;29;20505;-72
2023/05/31 06:58:02;;;;;;;4.30;3.90;;;22.60;54.60;;;;;;4965782;28;20476;-72
2023/05/31 07:00:33;;;;;;;4.73;4.23;;;22.60;55.20;;;;;;4962000;28;20454;-71
2023/05/31 07:03:02;;;;;;;2.87;2.63;;;22.60;54.80;;;;;;4945193;28;20469;-72
2023/05/31 07:05:31;;;;;;;5.43;3.30;;;22.60;55.30;;;;;;4946908;28;20469;-72
2023/05/31 07:08:00;;;;;;;3.30;3.00;;;22.60;55.30;;;;;;4953315;28;20559;-72
2023/05/31 07:10:33;;;;;;;3.50;3.00;;;22.60;54.90;;;;;;4958622;28;20502;-71
2023/05/31 07:13:02;;;;;;;3.67;2.63;;;22.60;55.00;;;;;;4961570;28;20828;-72
2023/05/31 07:15:30;;;;;;;3.57;3.27;;;22.60;55.50;;;;;;4962689;28;20516;-71
2023/05/31 07:17:59;;;;;;;5.50;4.13;;;22.70;55.10;;;;;;4947434;28;20743;-71
2023/05/31 07:20:28;;;;;;;3.60;3.10;;;22.60;55.00;;;;;;4966748;28;20454;-72
2023/05/31 07:22:58;;;;;;;3.67;3.37;;;22.70;55.40;;;;;;4964832;28;20460;-71
2023/05/31 07:25:26;;;;;;;3.57;3.10;;;22.60;55.60;;;;;;4966134;28;20504;-70
2023/05/31 07:27:56;;;;;;;3.57;3.27;;;22.60;55.70;;;;;;4965023;28;20519;-71
2023/05/31 07:30:25;;;;;;;3.10;2.80;;;22.60;55.70;;;;;;4966878;28;20441;-71
2023/05/31 07:32:54;;;;;;;4.47;3.03;;;22.60;55.70;;;;;;4948341;28;20484;-71
2023/05/31 07:35:23;;;;;;;3.40;3.10;;;22.70;55.80;;;;;;4965609;28;20487;-71
2023/05/31 07:37:51;;;;;;;3.63;3.33;;;22.70;56.20;;;;;;4949754;28;20456;-71
2023/05/31 07:40:20;;;;;;;4.63;2.67;;;22.60;56.00;;;;;;4964976;28;20456;-71
2023/05/31 07:42:48;;;;;;;3.63;3.33;;;22.60;56.00;;;;;;4950194;28;20512;-72
2023/05/31 07:45:18;;;;;;;3.40;3.10;;;22.60;56.00;;;;;;4949465;29;20468;-72
2023/05/31 07:47:47;;;;;;;3.20;2.90;;;22.70;56.10;;;;;;4958668;28;20488;-72
2023/05/31 07:50:15;;;;;;;3.30;3.00;;;22.60;56.10;;;;;;4957229;28;20483;-73
2023/05/31 07:52:46;;;;;;;4.10;3.20;;;22.70;56.20;;;;;;4963816;28;20471;-71
2023/05/31 07:55:14;;;;;;;3.50;3.20;;;22.60;56.20;;;;;;4968203;28;20943;-72
2023/05/31 07:57:43;;;;;;;3.63;3.30;;;22.60;56.10;;;;;;4968818;28;20837;-71
2023/05/31 08:00:13;;;;;;;4.23;3.60;;;22.60;56.20;;;;;;4984572;28;20453;-72
2023/05/31 08:02:43;;;;;;;3.77;3.30;;;22.60;56.30;;;;;;4984494;28;20479;-71
2023/05/31 08:05:13;;;;;;;5.20;3.80;;;22.70;56.40;;;;;;4984691;28;20472;-72
2023/05/31 08:07:42;;;;;;;3.90;2.77;;;22.60;56.30;;;;;;4972030;28;20475;-73
2023/05/31 08:10:11;;;;;;;4.57;4.17;;;22.70;56.40;;;;;;4948244;28;20488;-71
2023/05/31 08:12:40;;;;;;;5.07;3.00;;;22.70;56.30;;;;;;4964151;28;20472;-72
2023/05/31 08:15:11;;;;;;;3.67;3.27;;;22.60;56.30;;;;;;4956067;28;20474;-72
2023/05/31 08:17:39;;;;;;;3.40;3.00;;;22.60;56.40;;;;;;4946317;28;20934;-72
2023/05/31 08:20:15;;;;;;;8.83;3.90;;;22.60;56.30;;;;;;4950441;28;20896;-72
2023/05/31 08:22:45;;;;;;;3.60;3.30;;;22.60;56.20;;;;;;4947086;28;20483;-72
2023/05/31 08:25:14;;;;;;;3.30;2.80;;;22.60;56.40;;;;;;4939649;28;20498;-72
2023/05/31 08:27:42;;;;;;;4.07;3.47;;;22.70;56.40;;;;;;4962288;28;21017;-71
2023/05/31 08:30:12;;;;;;;3.23;2.83;;;22.60;56.30;;;;;;4947248;28;20453;-73
2023/05/31 08:32:41;;;;;;;3.57;3.27;;;22.60;56.40;;;;;;4945706;28;21018;-72
2023/05/31 08:35:12;;;;;;;3.27;2.80;;;22.60;57.60;;;;;;4947452;28;20472;-72
2023/05/31 08:37:40;;;;;;;3.30;3.00;;;22.60;56.40;;;;;;4951454;28;20477;-70
2023/05/31 08:40:09;;;;;;;3.80;3.07;;;22.60;56.40;;;;;;4961166;28;20500;-72
2023/05/31 08:42:44;;;;;;;3.73;3.00;;;22.60;56.50;;;;;;4944679;28;20560;-71
2023/05/31 08:45:12;;;;;;;3.60;3.30;;;22.60;56.60;;;;;;4942819;29;20860;-71
2023/05/31 08:47:46;;;;;;;3.50;3.20;;;22.60;56.60;;;;;;4963875;28;20469;-72
2023/05/31 08:50:18;;;;;;;3.40;3.10;;;22.60;56.50;;;;;;4948647;28;20434;-71
2023/05/31 08:52:47;;;;;;;3.10;2.80;;;22.60;56.50;;;;;;4947857;28;20982;-70
2023/05/31 08:55:17;;;;;;;3.27;2.80;;;22.60;56.60;;;;;;4943046;28;20474;-72
2023/05/31 08:57:47;;;;;;;3.00;2.70;;;22.60;56.70;;;;;;4960041;28;20497;-74
2023/05/31 09:00:17;;;;;;;3.10;2.80;;;22.60;56.70;;;;;;4954893;28;21064;-71
2023/05/31 09:02:48;;;;;;;3.40;3.10;;;22.60;56.70;;;;;;4943410;28;20476;-73
2023/05/31 09:05:18;;;;;;;3.30;3.00;;;22.60;56.60;;;;;;4943780;28;20461;-71
2023/05/31 09:07:49;;;;;;;3.53;3.23;;;22.60;56.50;;;;;;4944543;28;20536;-71
2023/05/31 09:10:19;;;;;;;3.43;3.10;;;22.60;56.60;;;;;;4942311;28;21074;-71
2023/05/31 09:12:48;;;;;;;3.40;2.63;;;22.60;56.50;;;;;;4964314;28;20469;-71
2023/05/31 09:15:18;;;;;;;4.50;3.47;;;22.60;56.60;;;;;;4958237;28;20456;-71
2023/05/31 09:17:46;;;;;;;3.57;3.23;;;22.60;57.80;;;;;;4940111;28;20488;-72
2023/05/31 09:20:16;;;;;;;3.13;2.73;;;22.60;57.60;;;;;;4952817;28;20438;-72
2023/05/31 09:22:49;;;;;;;3.80;2.90;;;22.60;56.40;;;;;;4961306;28;20468;-71
2023/05/31 09:25:18;;;;;;;3.40;2.77;;;22.60;56.40;;;;;;4943183;28;20489;-72
2023/05/31 09:27:46;;;;;;;2.93;2.63;;;22.60;56.20;;;;;;4947700;28;20469;-71
2023/05/31 09:30:16;;;;;;;3.50;2.93;;;22.60;56.30;;;;;;4950158;29;21028;-72
2023/05/31 09:32:54;;;;;;;4.00;2.90;;;22.60;56.20;;;;;;4942713;28;20505;-72
2023/05/31 09:35:27;;;;;;;5.97;3.10;;;22.60;56.10;;;;;;4964628;28;20488;-72
2023/05/31 09:37:57;;;;;;;3.03;2.47;;;22.60;56.00;;;;;;4936940;28;20468;-72
2023/05/31 09:40:26;;;;;;;2.73;2.53;;;22.60;56.00;;;;;;4944985;28;20457;-72
2023/05/31 09:42:55;;;;;;;3.00;2.70;;;22.60;56.10;;;;;;4956077;28;20488;-72
2023/05/31 09:45:25;;;;;;;4.00;2.80;;;22.60;56.30;;;;;;4964183;28;20448;-71
2023/05/31 09:47:53;;;;;;;3.37;3.07;;;22.60;56.10;;;;;;4935694;28;20476;-73
2023/05/31 09:50:23;;;;;;;4.23;3.27;;;22.60;56.20;;;;;;4948399;28;20536;-71
2023/05/31 09:52:59;;;;;;;4.47;3.00;;;22.60;55.60;;;;;;4940924;28;20472;-71
2023/05/31 09:55:41;;;;;;;4.13;3.20;;;22.60;55.80;;;;;;4946994;29;20499;-72
2023/05/31 09:58:30;;;;;;;4.50;2.80;;;22.60;55.50;;;;;;4953062;28;20479;-72
2023/05/31 10:01:00;;;;;;;3.80;2.80;;;22.60;55.10;;;;;;4947387;29;20445;-72
2023/05/31 10:03:30;;;;;;;3.40;2.93;;;22.70;55.50;;;;;;4946694;28;20476;-71
2023/05/31 10:05:59;;;;;;;3.53;3.17;;;22.60;55.30;;;;;;4943390;28;20798;-70
2023/05/31 10:08:30;;;;;;;3.27;2.70;;;22.60;55.30;;;;;;4959513;28;20523;-71
2023/05/31 10:11:00;;;;;;;4.63;2.87;;;22.60;55.10;;;;;;4952677;28;20972;-72
2023/05/31 10:13:30;;;;;;;14.70;13.80;;;22.60;54.80;;;;;;4957926;28;21002;-71
2023/05/31 10:16:05;;;;;;;9.73;9.03;;;22.70;53.50;;;;;;4961383;28;20477;-72
2023/05/31 10:18:37;;;;;;;10.10;9.37;;;22.60;53.70;;;;;;4947949;28;20896;-72
2023/05/31 10:21:11;;;;;;;9.37;8.77;;;22.60;53.40;;;;;;4963851;28;20439;-71
2023/05/31 10:23:46;;;;;;;8.30;7.70;;;22.70;53.40;;;;;;4978520;28;20580;-71
2023/05/31 10:26:17;;;;;;;8.93;8.33;;;22.70;53.20;;;;;;4965248;28;20446;-71
2023/05/31 10:28:49;;;;;;;8.23;7.47;;;22.60;53.50;;;;;;4983506;28;20446;-70
2023/05/31 10:31:23;;;;;;;6.80;6.30;;;22.60;53.60;;;;;;4982575;28;20495;-70
2023/05/31 10:33:58;;;;;;;7.60;7.10;;;22.60;53.90;;;;;;4967300;28;20519;-72
2023/05/31 10:36:30;;;;;;;8.00;7.50;;;22.60;53.60;;;;;;4977412;28;20468;-72
2023/05/31 10:39:06;;;;;;;7.30;6.70;;;22.60;53.80;;;;;;4981873;28;20558;-72
2023/05/31 10:41:43;;;;;;;7.67;7.07;;;22.70;54.00;;;;;;4968821;28;20673;-72
2023/05/31 10:44:20;;;;;;;8.03;7.50;;;22.70;54.10;;;;;;4960759;28;20466;-71
2023/05/31 10:46:57;;;;;;;7.43;6.93;;;22.60;54.10;;;;;;4981159;28;20565;-72
2023/05/31 10:49:29;;;;;;;6.43;5.73;;;22.60;54.30;;;;;;4963182;28;21064;-72
2023/05/31 10:52:05;;;;;;;6.50;6.03;;;22.60;54.00;;;;;;4968934;28;20530;-71
2023/05/31 10:54:35;;;;;;;7.00;6.40;;;22.60;54.20;;;;;;4988053;28;20999;-72
2023/05/31 10:57:05;;;;;;;6.87;6.37;;;22.60;54.30;;;;;;4988951;28;20456;-71
2023/05/31 10:59:43;;;;;;;5.50;5.20;;;22.60;54.60;;;;;;4974904;28;20440;-71
2023/05/31 11:02:12;;;;;;;6.50;6.10;;;22.70;54.60;;;;;;4972528;28;20469;-70
2023/05/31 11:04:42;;;;;;;5.93;5.40;;;22.70;54.80;;;;;;4989643;28;20526;-71
2023/05/31 11:07:14;;;;;;;6.43;5.50;;;22.70;54.90;;;;;;4981223;28;20467;-71
2023/05/31 11:09:58;;;;;;;6.53;6.13;;;22.70;55.00;;;;;;4954900;28;21024;-72
2023/05/31 11:12:35;;;;;;;6.60;6.10;;;22.70;55.00;;;;;;4954102;28;20468;-69
2023/05/31 11:15:06;;;;;;;5.70;5.30;;;22.70;54.80;;;;;;4970568;28;20471;-67
2023/05/31 11:17:52;;;;;;;6.10;5.60;;;22.70;54.60;;;;;;4963446;28;20555;-68
2023/05/31 11:20:23;;;;;;;5.37;4.97;;;22.70;54.80;;;;;;4949733;28;20902;-69
2023/05/31 11:23:25;;;;;;;6.10;5.60;;;22.70;54.50;;;;;;4955801;28;20476;-70
2023/05/31 11:26:16;;;;;;;5.90;5.50;;;22.70;54.40;;;;;;4953944;28;20459;-70
2023/05/31 11:29:01;;;;;;;5.70;5.30;;;22.70;54.00;;;;;;4965376;28;20509;-69
2023/05/31 11:32:01;;;;;;;5.80;5.40;;;22.70;55.70;;;;;;4969844;28;20467;-69
2023/05/31 11:34:33;;;;;;;5.53;5.10;;;22.70;54.80;;;;;;4952880;28;20497;-69
2023/05/31 11:37:04;;;;;;;5.83;5.33;;;22.70;54.70;;;;;;4960996;28;20950;-68
2023/05/31 11:39:33;;;;;;;4.93;4.53;;;22.80;54.80;;;;;;4969102;28;20540;-68
2023/05/31 11:42:04;;;;;;;5.10;4.67;;;22.80;54.00;;;;;;4960118;28;20488;-68
2023/05/31 11:44:33;;;;;;;5.00;4.60;;;22.80;54.00;;;;;;4953454;29;20472;-69
2023/05/31 11:47:06;;;;;;;5.57;5.17;;;22.80;54.00;;;;;;4967852;28;20484;-69
2023/05/31 11:49:35;;;;;;;5.27;4.87;;;22.80;54.40;;;;;;4956943;28;20425;-69
2023/05/31 11:52:08;;;;;;;4.97;4.50;;;22.80;54.20;;;;;;4968942;28;20838;-68
2023/05/31 11:54:37;;;;;;;5.20;4.90;;;22.80;54.30;;;;;;4968481;28;20473;-69
2023/05/31 11:57:09;;;;;;;4.87;4.57;;;22.80;54.10;;;;;;4969299;28;20510;-69
2023/05/31 11:59:39;;;;;;;5.43;5.03;;;22.80;54.10;;;;;;4965861;28;20936;-68
2023/05/31 12:02:09;;;;;;;5.20;4.80;;;22.80;54.10;;;;;;4958839;28;20476;-69
2023/05/31 12:04:40;;;;;;;5.67;5.27;;;22.80;54.00;;;;;;4986368;28;20478;-69
2023/05/31 12:07:11;;;;;;;4.60;4.20;;;22.80;55.10;;;;;;4977212;28;20448;-69
2023/05/31 12:09:40;;;;;;;4.67;4.23;;;22.80;53.80;;;;;;4984136;28;20462;-70
2023/05/31 12:12:12;;;;;;;5.10;4.80;;;22.80;53.60;;;;;;4962931;28;20427;-70
2023/05/31 12:14:50;;;;;;;5.60;4.70;;;22.80;54.20;;;;;;4983159;28;20829;-70
2023/05/31 12:17:19;;;;;;;6.00;5.57;;;22.90;54.00;;;;;;4964719;28;20986;-69
2023/05/31 12:19:49;;;;;;;5.00;4.50;;;22.90;54.30;;;;;;4950904;29;20441;-68
2023/05/31 12:22:17;;;;;;;4.83;4.43;;;22.90;54.30;;;;;;4961012;28;20489;-69
2023/05/31 12:24:50;;;;;;;4.70;4.40;;;22.90;53.90;;;;;;4955829;28;20486;-71
2023/05/31 12:27:22;;;;;;;4.63;4.23;;;22.90;54.20;;;;;;4949876;28;20477;-69
2023/05/31 12:30:17;;;;;;;4.80;4.50;;;22.90;54.00;;;;;;4958494;28;20437;-69
2023/05/31 12:32:47;;;;;;;5.30;4.90;;;22.90;54.10;;;;;;4963959;28;20484;-69
2023/05/31 12:35:16;;;;;;;4.80;4.50;;;22.90;54.30;;;;;;4950858;28;20581;-70
2023/05/31 12:37:45;;;;;;;5.20;4.87;;;22.90;54.40;;;;;;4948943;28;20536;-69
2023/05/31 12:40:15;;;;;;;4.80;4.50;;;22.90;54.30;;;;;;4949388;29;20453;-68
2023/05/31 12:42:46;;;;;;;4.87;4.57;;;22.90;54.50;;;;;;4961979;28;20473;-68
2023/05/31 12:45:19;;;;;;;5.37;4.80;;;22.90;54.30;;;;;;4950508;28;21022;-71
2023/05/31 12:47:58;;;;;;;3.87;3.57;;;22.90;54.40;;;;;;4948494;28;20473;-72
2023/05/31 12:50:30;;;;;;;4.63;4.33;;;22.90;54.60;;;;;;4966186;28;20438;-70
2023/05/31 12:53:00;;;;;;;4.97;4.67;;;23.00;54.50;;;;;;4949573;28;20480;-70
2023/05/31 12:55:29;;;;;;;4.47;4.17;;;23.00;54.50;;;;;;4949759;29;20449;-71
2023/05/31 12:57:59;;;;;;;4.87;4.47;;;23.00;53.70;;;;;;4964372;28;20469;-72
2023/05/31 13:00:33;;;;;;;4.27;3.87;;;23.00;54.20;;;;;;4959255;28;20876;-72
2023/05/31 13:03:02;;;;;;;4.63;4.30;;;23.00;54.00;;;;;;4947594;28;20469;-72
2023/05/31 13:05:32;;;;;;;4.10;3.80;;;23.00;54.30;;;;;;4949472;28;20468;-72
2023/05/31 13:08:03;;;;;;;5.40;5.00;;;23.00;54.00;;;;;;4946985;28;20464;-71